sensor_id;sensor_type;location;lat;lon;timestamp;temperature;humidity
10192;DHT22;17580;50.850;4.504;2023-02-10T00:01:44;3.70;66.50
10192;DHT22;17580;50.850;4.504;2023-02-10T00:04:13;3.60;66.60
10192;DHT22;17580;50.850;4.504;2023-02-10T00:06:40;3.60;67.10
10192;DHT22;17580;50.850;4.504;2023-02-10T00:09:10;3.60;67.80
10192;DHT22;17580;50.850;4.504;2023-02-10T00:11:38;3.60;68.30
10192;DHT22;17580;50.850;4.504;2023-02-10T00:14:23;3.50;67.30
10192;DHT22;17580;50.850;4.504;2023-02-10T00:16:50;3.40;67.50
10192;DHT22;17580;50.850;4.504;2023-02-10T00:19:19;3.40;68.20
10192;DHT22;17580;50.850;4.504;2023-02-10T00:21:47;3.30;69.00
10192;DHT22;17580;50.850;4.504;2023-02-10T00:24:14;3.30;69.00
10192;DHT22;17580;50.850;4.504;2023-02-10T00:26:41;3.30;68.40
10192;DHT22;17580;50.850;4.504;2023-02-10T00:29:08;3.10;68.40
10192;DHT22;17580;50.850;4.504;2023-02-10T00:31:35;3.10;68.00
10192;DHT22;17580;50.850;4.504;2023-02-10T00:34:02;3.00;67.60
10192;DHT22;17580;50.850;4.504;2023-02-10T00:36:30;2.90;68.30
10192;DHT22;17580;50.850;4.504;2023-02-10T00:38:57;2.90;68.50
10192;DHT22;17580;50.850;4.504;2023-02-10T00:41:24;2.80;68.10
10192;DHT22;17580;50.850;4.504;2023-02-10T00:43:51;2.80;68.40
10192;DHT22;17580;50.850;4.504;2023-02-10T00:46:20;2.80;68.20
10192;DHT22;17580;50.850;4.504;2023-02-10T00:48:47;2.70;69.00
10192;DHT22;17580;50.850;4.504;2023-02-10T00:51:15;2.60;69.40
10192;DHT22;17580;50.850;4.504;2023-02-10T00:53:44;2.70;69.10
10192;DHT22;17580;50.850;4.504;2023-02-10T00:56:11;2.70;70.30
10192;DHT22;17580;50.850;4.504;2023-02-10T00:58:38;2.70;70.70
10192;DHT22;17580;50.850;4.504;2023-02-10T01:01:05;2.70;70.80
10192;DHT22;17580;50.850;4.504;2023-02-10T01:03:33;2.70;71.70
10192;DHT22;17580;50.850;4.504;2023-02-10T01:06:00;2.80;71.30
10192;DHT22;17580;50.850;4.504;2023-02-10T01:08:27;2.90;71.00
10192;DHT22;17580;50.850;4.504;2023-02-10T01:11:00;2.90;72.00
10192;DHT22;17580;50.850;4.504;2023-02-10T01:13:28;2.90;72.20
10192;DHT22;17580;50.850;4.504;2023-02-10T01:15:55;3.00;72.90
10192;DHT22;17580;50.850;4.504;2023-02-10T01:18:22;3.00;72.00
10192;DHT22;17580;50.850;4.504;2023-02-10T01:20:49;3.10;73.00
10192;DHT22;17580;50.850;4.504;2023-02-10T01:23:16;3.00;72.50
10192;DHT22;17580;50.850;4.504;2023-02-10T01:25:43;3.10;73.10
10192;DHT22;17580;50.850;4.504;2023-02-10T01:28:12;3.20;72.50
10192;DHT22;17580;50.850;4.504;2023-02-10T01:30:38;3.20;73.20
10192;DHT22;17580;50.850;4.504;2023-02-10T01:33:05;3.20;73.60
10192;DHT22;17580;50.850;4.504;2023-02-10T01:35:32;3.30;73.30
10192;DHT22;17580;50.850;4.504;2023-02-10T01:37:59;3.30;72.90
10192;DHT22;17580;50.850;4.504;2023-02-10T01:40:26;3.30;73.30
10192;DHT22;17580;50.850;4.504;2023-02-10T01:42:53;3.30;73.40
10192;DHT22;17580;50.850;4.504;2023-02-10T01:45:26;3.30;72.50
10192;DHT22;17580;50.850;4.504;2023-02-10T01:47:55;3.20;72.90
10192;DHT22;17580;50.850;4.504;2023-02-10T01:50:26;3.10;73.40
10192;DHT22;17580;50.850;4.504;2023-02-10T01:52:54;3.10;74.50
10192;DHT22;17580;50.850;4.504;2023-02-10T01:55:24;3.20;74.10
10192;DHT22;17580;50.850;4.504;2023-02-10T01:57:52;3.20;74.60
10192;DHT22;17580;50.850;4.504;2023-02-10T02:00:21;3.10;74.60
10192;DHT22;17580;50.850;4.504;2023-02-10T02:02:50;3.10;75.30
10192;DHT22;17580;50.850;4.504;2023-02-10T02:05:30;3.10;76.10
10192;DHT22;17580;50.850;4.504;2023-02-10T02:08:01;3.00;76.80
10192;DHT22;17580;50.850;4.504;2023-02-10T02:10:37;2.90;76.20
10192;DHT22;17580;50.850;4.504;2023-02-10T02:13:11;2.80;77.40
10192;DHT22;17580;50.850;4.504;2023-02-10T02:15:46;2.70;76.90
10192;DHT22;17580;50.850;4.504;2023-02-10T02:18:21;2.60;77.60
10192;DHT22;17580;50.850;4.504;2023-02-10T02:21:23;2.60;78.10
10192;DHT22;17580;50.850;4.504;2023-02-10T02:24:06;2.60;78.30
10192;DHT22;17580;50.850;4.504;2023-02-10T02:27:04;2.60;78.50
10192;DHT22;17580;50.850;4.504;2023-02-10T02:32:39;2.40;79.20
10192;DHT22;17580;50.850;4.504;2023-02-10T02:35:10;2.40;80.20
10192;DHT22;17580;50.850;4.504;2023-02-10T02:37:41;2.40;81.90
10192;DHT22;17580;50.850;4.504;2023-02-10T02:40:09;2.40;82.80
10192;DHT22;17580;50.850;4.504;2023-02-10T02:42:37;2.40;83.50
10192;DHT22;17580;50.850;4.504;2023-02-10T02:45:08;2.40;83.10
10192;DHT22;17580;50.850;4.504;2023-02-10T02:47:54;2.40;84.40
10192;DHT22;17580;50.850;4.504;2023-02-10T02:50:30;2.30;83.90
10192;DHT22;17580;50.850;4.504;2023-02-10T02:53:20;2.30;85.30
10192;DHT22;17580;50.850;4.504;2023-02-10T02:55:56;2.30;86.10
10192;DHT22;17580;50.850;4.504;2023-02-10T02:58:33;2.20;84.50
10192;DHT22;17580;50.850;4.504;2023-02-10T03:01:03;2.20;84.60
10192;DHT22;17580;50.850;4.504;2023-02-10T03:03:34;2.10;84.50
10192;DHT22;17580;50.850;4.504;2023-02-10T03:06:01;2.10;85.10
10192;DHT22;17580;50.850;4.504;2023-02-10T03:08:30;2.10;86.30
10192;DHT22;17580;50.850;4.504;2023-02-10T03:10:57;2.10;86.30
10192;DHT22;17580;50.850;4.504;2023-02-10T03:13:24;2.10;85.70
10192;DHT22;17580;50.850;4.504;2023-02-10T03:15:51;2.10;87.10
10192;DHT22;17580;50.850;4.504;2023-02-10T03:18:18;2.10;86.70
10192;DHT22;17580;50.850;4.504;2023-02-10T03:20:47;2.20;86.60
10192;DHT22;17580;50.850;4.504;2023-02-10T03:23:14;2.10;87.80
10192;DHT22;17580;50.850;4.504;2023-02-10T03:25:43;2.20;88.30
10192;DHT22;17580;50.850;4.504;2023-02-10T03:28:11;2.20;89.20
10192;DHT22;17580;50.850;4.504;2023-02-10T03:30:38;2.20;90.30
10192;DHT22;17580;50.850;4.504;2023-02-10T03:33:07;2.20;91.00
10192;DHT22;17580;50.850;4.504;2023-02-10T03:35:35;2.20;92.10
10192;DHT22;17580;50.850;4.504;2023-02-10T03:38:05;2.20;91.50
10192;DHT22;17580;50.850;4.504;2023-02-10T03:40:32;2.20;92.90
10192;DHT22;17580;50.850;4.504;2023-02-10T03:42:59;2.30;96.30
10192;DHT22;17580;50.850;4.504;2023-02-10T03:45:26;2.40;99.90
10192;DHT22;17580;50.850;4.504;2023-02-10T03:47:53;2.40;99.70
10192;DHT22;17580;50.850;4.504;2023-02-10T03:50:20;2.30;95.90
10192;DHT22;17580;50.850;4.504;2023-02-10T03:52:47;2.40;99.20
10192;DHT22;17580;50.850;4.504;2023-02-10T03:55:16;2.40;99.30
10192;DHT22;17580;50.850;4.504;2023-02-10T03:57:45;2.30;99.80
10192;DHT22;17580;50.850;4.504;2023-02-10T04:00:13;2.30;98.00
10192;DHT22;17580;50.850;4.504;2023-02-10T04:02:40;2.20;96.40
10192;DHT22;17580;50.850;4.504;2023-02-10T04:05:07;2.20;96.00
10192;DHT22;17580;50.850;4.504;2023-02-10T04:07:34;2.10;95.70
10192;DHT22;17580;50.850;4.504;2023-02-10T04:10:02;2.00;94.60
10192;DHT22;17580;50.850;4.504;2023-02-10T04:12:31;1.90;94.00
10192;DHT22;17580;50.850;4.504;2023-02-10T04:14:58;1.90;94.00
10192;DHT22;17580;50.850;4.504;2023-02-10T04:17:25;1.90;93.90
10192;DHT22;17580;50.850;4.504;2023-02-10T04:19:52;1.80;94.30
10192;DHT22;17580;50.850;4.504;2023-02-10T04:22:19;1.70;94.40
10192;DHT22;17580;50.850;4.504;2023-02-10T04:24:46;1.70;94.30
10192;DHT22;17580;50.850;4.504;2023-02-10T04:27:13;1.60;94.30
10192;DHT22;17580;50.850;4.504;2023-02-10T04:29:41;1.70;94.50
10192;DHT22;17580;50.850;4.504;2023-02-10T04:32:08;1.70;94.30
10192;DHT22;17580;50.850;4.504;2023-02-10T04:34:35;1.60;94.10
10192;DHT22;17580;50.850;4.504;2023-02-10T04:37:02;1.60;95.20
10192;DHT22;17580;50.850;4.504;2023-02-10T04:39:29;1.70;94.90
10192;DHT22;17580;50.850;4.504;2023-02-10T04:41:56;1.60;94.60
10192;DHT22;17580;50.850;4.504;2023-02-10T04:44:23;1.60;93.80
10192;DHT22;17580;50.850;4.504;2023-02-10T04:46:52;1.50;93.90
10192;DHT22;17580;50.850;4.504;2023-02-10T04:49:19;1.50;94.40
10192;DHT22;17580;50.850;4.504;2023-02-10T04:51:46;1.50;94.00
10192;DHT22;17580;50.850;4.504;2023-02-10T04:54:13;1.40;94.40
10192;DHT22;17580;50.850;4.504;2023-02-10T04:56:40;1.40;94.20
10192;DHT22;17580;50.850;4.504;2023-02-10T04:59:07;1.40;94.60
10192;DHT22;17580;50.850;4.504;2023-02-10T05:01:34;1.40;94.20
10192;DHT22;17580;50.850;4.504;2023-02-10T05:04:02;1.40;94.10
10192;DHT22;17580;50.850;4.504;2023-02-10T05:06:30;1.40;94.20
10192;DHT22;17580;50.850;4.504;2023-02-10T05:08:57;1.40;94.40
10192;DHT22;17580;50.850;4.504;2023-02-10T05:11:24;1.40;94.60
10192;DHT22;17580;50.850;4.504;2023-02-10T05:13:51;1.40;95.30
10192;DHT22;17580;50.850;4.504;2023-02-10T05:16:18;1.40;95.10
10192;DHT22;17580;50.850;4.504;2023-02-10T05:18:45;1.30;94.90
10192;DHT22;17580;50.850;4.504;2023-02-10T05:21:13;1.30;95.00
10192;DHT22;17580;50.850;4.504;2023-02-10T05:23:41;1.20;94.90
10192;DHT22;17580;50.850;4.504;2023-02-10T05:26:08;1.30;96.20
10192;DHT22;17580;50.850;4.504;2023-02-10T05:28:35;1.30;95.50
10192;DHT22;17580;50.850;4.504;2023-02-10T05:31:02;1.20;95.90
10192;DHT22;17580;50.850;4.504;2023-02-10T05:33:32;1.30;95.90
10192;DHT22;17580;50.850;4.504;2023-02-10T05:36:00;1.30;96.20
10192;DHT22;17580;50.850;4.504;2023-02-10T05:38:28;1.30;95.70
10192;DHT22;17580;50.850;4.504;2023-02-10T05:40:55;1.40;95.50
10192;DHT22;17580;50.850;4.504;2023-02-10T05:43:22;1.50;95.90
10192;DHT22;17580;50.850;4.504;2023-02-10T05:45:49;1.50;96.40
10192;DHT22;17580;50.850;4.504;2023-02-10T05:48:16;1.50;96.90
10192;DHT22;17580;50.850;4.504;2023-02-10T05:50:43;1.50;99.20
10192;DHT22;17580;50.850;4.504;2023-02-10T05:53:10;1.60;99.90
10192;DHT22;17580;50.850;4.504;2023-02-10T05:55:39;1.70;99.90
10192;DHT22;17580;50.850;4.504;2023-02-10T05:58:06;1.70;99.90
10192;DHT22;17580;50.850;4.504;2023-02-10T06:00:33;1.80;99.90
10192;DHT22;17580;50.850;4.504;2023-02-10T06:03:00;1.80;99.90
10192;DHT22;17580;50.850;4.504;2023-02-10T06:05:27;1.80;99.90
10192;DHT22;17580;50.850;4.504;2023-02-10T06:07:54;1.90;99.90
10192;DHT22;17580;50.850;4.504;2023-02-10T06:10:21;2.00;99.90
10192;DHT22;17580;50.850;4.504;2023-02-10T06:12:50;2.00;99.90
10192;DHT22;17580;50.850;4.504;2023-02-10T06:15:17;2.00;99.90
10192;DHT22;17580;50.850;4.504;2023-02-10T06:17:44;2.00;99.90
10192;DHT22;17580;50.850;4.504;2023-02-10T06:20:11;2.00;99.90
10192;DHT22;17580;50.850;4.504;2023-02-10T06:22:38;2.10;99.90
10192;DHT22;17580;50.850;4.504;2023-02-10T06:25:05;2.00;99.90
10192;DHT22;17580;50.850;4.504;2023-02-10T06:27:32;1.90;99.90
10192;DHT22;17580;50.850;4.504;2023-02-10T06:30:01;1.80;99.90
10192;DHT22;17580;50.850;4.504;2023-02-10T06:32:28;1.90;99.90
10192;DHT22;17580;50.850;4.504;2023-02-10T06:34:55;1.80;99.90
10192;DHT22;17580;50.850;4.504;2023-02-10T06:37:22;1.70;99.90
10192;DHT22;17580;50.850;4.504;2023-02-10T06:39:50;1.70;99.90
10192;DHT22;17580;50.850;4.504;2023-02-10T06:42:17;1.70;99.90
10192;DHT22;17580;50.850;4.504;2023-02-10T06:44:44;1.70;99.90
10192;DHT22;17580;50.850;4.504;2023-02-10T06:47:12;1.70;99.90
10192;DHT22;17580;50.850;4.504;2023-02-10T06:49:39;1.70;99.90
10192;DHT22;17580;50.850;4.504;2023-02-10T06:52:06;1.60;99.90
10192;DHT22;17580;50.850;4.504;2023-02-10T06:54:33;1.60;99.90
10192;DHT22;17580;50.850;4.504;2023-02-10T06:57:00;1.60;99.90
10192;DHT22;17580;50.850;4.504;2023-02-10T06:59:27;1.60;99.90
10192;DHT22;17580;50.850;4.504;2023-02-10T07:01:54;1.50;99.90
10192;DHT22;17580;50.850;4.504;2023-02-10T07:04:27;1.60;99.90
10192;DHT22;17580;50.850;4.504;2023-02-10T07:06:54;1.60;99.90
10192;DHT22;17580;50.850;4.504;2023-02-10T07:09:21;1.50;99.90
10192;DHT22;17580;50.850;4.504;2023-02-10T07:11:49;1.50;99.90
10192;DHT22;17580;50.850;4.504;2023-02-10T07:14:16;1.50;99.90
10192;DHT22;17580;50.850;4.504;2023-02-10T07:16:43;1.50;99.90
10192;DHT22;17580;50.850;4.504;2023-02-10T07:19:10;1.60;99.90
10192;DHT22;17580;50.850;4.504;2023-02-10T07:21:38;1.60;99.90
10192;DHT22;17580;50.850;4.504;2023-02-10T07:24:06;1.70;99.90
10192;DHT22;17580;50.850;4.504;2023-02-10T07:26:33;1.70;99.90
10192;DHT22;17580;50.850;4.504;2023-02-10T07:29:00;1.80;99.90
10192;DHT22;17580;50.850;4.504;2023-02-10T07:31:27;1.80;99.90
10192;DHT22;17580;50.850;4.504;2023-02-10T07:33:54;1.90;99.90
10192;DHT22;17580;50.850;4.504;2023-02-10T07:36:21;1.90;99.90
10192;DHT22;17580;50.850;4.504;2023-02-10T07:38:50;2.00;99.90
10192;DHT22;17580;50.850;4.504;2023-02-10T07:41:17;2.10;99.90
10192;DHT22;17580;50.850;4.504;2023-02-10T07:43:44;2.20;99.90
10192;DHT22;17580;50.850;4.504;2023-02-10T07:46:11;2.20;99.90
10192;DHT22;17580;50.850;4.504;2023-02-10T07:48:38;2.50;99.90
10192;DHT22;17580;50.850;4.504;2023-02-10T07:51:05;2.60;99.90
10192;DHT22;17580;50.850;4.504;2023-02-10T07:53:32;2.70;99.90
10192;DHT22;17580;50.850;4.504;2023-02-10T07:56:01;2.80;99.90
10192;DHT22;17580;50.850;4.504;2023-02-10T07:58:28;2.90;99.90
10192;DHT22;17580;50.850;4.504;2023-02-10T08:00:55;3.10;99.90
10192;DHT22;17580;50.850;4.504;2023-02-10T08:03:23;3.30;99.90
10192;DHT22;17580;50.850;4.504;2023-02-10T08:05:50;3.40;99.90
10192;DHT22;17580;50.850;4.504;2023-02-10T08:08:17;3.50;99.90
10192;DHT22;17580;50.850;4.504;2023-02-10T08:10:44;3.40;99.90
10192;DHT22;17580;50.850;4.504;2023-02-10T08:13:13;3.40;99.90
10192;DHT22;17580;50.850;4.504;2023-02-10T08:15:40;3.30;99.90
10192;DHT22;17580;50.850;4.504;2023-02-10T08:18:07;3.20;99.90
10192;DHT22;17580;50.850;4.504;2023-02-10T08:20:34;3.20;99.90
10192;DHT22;17580;50.850;4.504;2023-02-10T08:23:01;3.20;99.90
10192;DHT22;17580;50.850;4.504;2023-02-10T08:25:29;3.10;99.90
10192;DHT22;17580;50.850;4.504;2023-02-10T08:27:56;3.30;99.90
10192;DHT22;17580;50.850;4.504;2023-02-10T08:30:24;3.70;99.90
10192;DHT22;17580;50.850;4.504;2023-02-10T08:32:51;4.10;99.90
10192;DHT22;17580;50.850;4.504;2023-02-10T08:35:18;4.30;99.90
10192;DHT22;17580;50.850;4.504;2023-02-10T08:37:45;4.50;99.90
10192;DHT22;17580;50.850;4.504;2023-02-10T08:40:12;4.50;99.90
10192;DHT22;17580;50.850;4.504;2023-02-10T08:42:39;4.80;99.90
10192;DHT22;17580;50.850;4.504;2023-02-10T08:45:07;5.00;99.90
10192;DHT22;17580;50.850;4.504;2023-02-10T08:47:35;5.00;99.90
10192;DHT22;17580;50.850;4.504;2023-02-10T08:50:03;5.00;99.90
10192;DHT22;17580;50.850;4.504;2023-02-10T08:52:30;5.10;99.90
10192;DHT22;17580;50.850;4.504;2023-02-10T08:54:57;5.10;99.90
10192;DHT22;17580;50.850;4.504;2023-02-10T08:57:25;5.20;99.90
10192;DHT22;17580;50.850;4.504;2023-02-10T08:59:52;5.80;99.90
10192;DHT22;17580;50.850;4.504;2023-02-10T09:02:19;6.20;98.80
10192;DHT22;17580;50.850;4.504;2023-02-10T09:04:47;7.50;95.80
10192;DHT22;17580;50.850;4.504;2023-02-10T09:07:14;8.30;91.00
10192;DHT22;17580;50.850;4.504;2023-02-10T09:09:43;8.70;89.30
10192;DHT22;17580;50.850;4.504;2023-02-10T09:12:11;9.60;85.70
10192;DHT22;17580;50.850;4.504;2023-02-10T09:14:38;10.20;80.90
10192;DHT22;17580;50.850;4.504;2023-02-10T09:17:06;10.90;78.50
10192;DHT22;17580;50.850;4.504;2023-02-10T09:19:34;10.70;72.80
10192;DHT22;17580;50.850;4.504;2023-02-10T09:22:02;10.30;71.40
10192;DHT22;17580;50.850;4.504;2023-02-10T09:24:30;10.40;72.20
10192;DHT22;17580;50.850;4.504;2023-02-10T09:26:57;10.00;71.20
10192;DHT22;17580;50.850;4.504;2023-02-10T09:29:24;10.20;69.70
10192;DHT22;17580;50.850;4.504;2023-02-10T09:31:52;10.40;67.30
10192;DHT22;17580;50.850;4.504;2023-02-10T09:34:18;10.60;66.50
10192;DHT22;17580;50.850;4.504;2023-02-10T09:36:46;10.60;63.90
10192;DHT22;17580;50.850;4.504;2023-02-10T09:39:14;10.40;64.50
10192;DHT22;17580;50.850;4.504;2023-02-10T09:41:48;10.10;62.90
10192;DHT22;17580;50.850;4.504;2023-02-10T09:44:20;9.10;68.50
10192;DHT22;17580;50.850;4.504;2023-02-10T09:50:00;8.60;69.30
10192;DHT22;17580;50.850;4.504;2023-02-10T09:52:36;7.90;72.70
10192;DHT22;17580;50.850;4.504;2023-02-10T09:55:13;7.90;74.30
10192;DHT22;17580;50.850;4.504;2023-02-10T09:57:44;8.30;74.80
10192;DHT22;17580;50.850;4.504;2023-02-10T10:00:23;9.10;72.20
10192;DHT22;17580;50.850;4.504;2023-02-10T10:02:53;8.80;70.80
10192;DHT22;17580;50.850;4.504;2023-02-10T10:05:28;8.10;73.40
10192;DHT22;17580;50.850;4.504;2023-02-10T10:07:57;7.40;76.90
10192;DHT22;17580;50.850;4.504;2023-02-10T10:10:32;7.00;80.40
10192;DHT22;17580;50.850;4.504;2023-02-10T10:13:01;6.80;83.40
10192;DHT22;17580;50.850;4.504;2023-02-10T10:15:33;6.50;88.10
10192;DHT22;17580;50.850;4.504;2023-02-10T10:18:07;6.60;89.30
10192;DHT22;17580;50.850;4.504;2023-02-10T10:20:50;6.90;89.60
10192;DHT22;17580;50.850;4.504;2023-02-10T10:23:33;6.90;89.00
10192;DHT22;17580;50.850;4.504;2023-02-10T10:26:15;7.10;89.70
10192;DHT22;17580;50.850;4.504;2023-02-10T10:28:57;7.30;86.80
10192;DHT22;17580;50.850;4.504;2023-02-10T10:31:30;7.50;87.20
10192;DHT22;17580;50.850;4.504;2023-02-10T10:33:59;7.70;86.90
10192;DHT22;17580;50.850;4.504;2023-02-10T10:36:33;7.80;84.40
10192;DHT22;17580;50.850;4.504;2023-02-10T10:39:03;7.80;84.40
10192;DHT22;17580;50.850;4.504;2023-02-10T10:41:37;7.50;85.80
10192;DHT22;17580;50.850;4.504;2023-02-10T10:44:04;8.00;83.60
10192;DHT22;17580;50.850;4.504;2023-02-10T10:46:38;7.90;83.10
10192;DHT22;17580;50.850;4.504;2023-02-10T10:49:09;8.20;83.30
10192;DHT22;17580;50.850;4.504;2023-02-10T10:51:36;8.80;79.40
10192;DHT22;17580;50.850;4.504;2023-02-10T10:54:05;9.20;79.60
10192;DHT22;17580;50.850;4.504;2023-02-10T10:56:39;9.20;76.50
10192;DHT22;17580;50.850;4.504;2023-02-10T10:59:12;9.20;76.50
10192;DHT22;17580;50.850;4.504;2023-02-10T11:01:41;9.10;77.20
10192;DHT22;17580;50.850;4.504;2023-02-10T11:04:12;8.90;76.50
10192;DHT22;17580;50.850;4.504;2023-02-10T11:06:40;9.20;77.30
10192;DHT22;17580;50.850;4.504;2023-02-10T11:09:21;9.80;75.70
10192;DHT22;17580;50.850;4.504;2023-02-10T11:11:50;9.40;75.20
10192;DHT22;17580;50.850;4.504;2023-02-10T11:14:23;9.50;74.00
10192;DHT22;17580;50.850;4.504;2023-02-10T11:16:53;8.60;74.90
10192;DHT22;17580;50.850;4.504;2023-02-10T11:19:25;8.00;77.50
10192;DHT22;17580;50.850;4.504;2023-02-10T11:21:53;7.60;80.30
10192;DHT22;17580;50.850;4.504;2023-02-10T11:24:23;7.70;81.00
10192;DHT22;17580;50.850;4.504;2023-02-10T11:26:59;8.30;82.20
10192;DHT22;17580;50.850;4.504;2023-02-10T11:29:28;8.50;79.10
10192;DHT22;17580;50.850;4.504;2023-02-10T11:31:56;8.10;79.60
10192;DHT22;17580;50.850;4.504;2023-02-10T11:34:26;8.10;80.00
10192;DHT22;17580;50.850;4.504;2023-02-10T11:36:55;7.90;79.90
10192;DHT22;17580;50.850;4.504;2023-02-10T11:39:27;7.90;81.90
10192;DHT22;17580;50.850;4.504;2023-02-10T11:41:56;8.00;82.20
10192;DHT22;17580;50.850;4.504;2023-02-10T11:44:26;8.10;82.30
10192;DHT22;17580;50.850;4.504;2023-02-10T11:46:56;7.90;82.30
10192;DHT22;17580;50.850;4.504;2023-02-10T11:49:23;7.70;84.00
10192;DHT22;17580;50.850;4.504;2023-02-10T11:51:54;7.70;85.70
10192;DHT22;17580;50.850;4.504;2023-02-10T11:54:22;7.90;85.40
10192;DHT22;17580;50.850;4.504;2023-02-10T11:57:03;7.90;86.00
10192;DHT22;17580;50.850;4.504;2023-02-10T11:59:56;7.80;86.80
10192;DHT22;17580;50.850;4.504;2023-02-10T12:02:39;7.90;87.30
10192;DHT22;17580;50.850;4.504;2023-02-10T12:05:19;7.90;86.90
10192;DHT22;17580;50.850;4.504;2023-02-10T12:07:59;8.00;87.40
10192;DHT22;17580;50.850;4.504;2023-02-10T12:10:35;8.10;86.60
10192;DHT22;17580;50.850;4.504;2023-02-10T12:13:14;8.20;85.40
10192;DHT22;17580;50.850;4.504;2023-02-10T12:15:49;8.10;86.80
10192;DHT22;17580;50.850;4.504;2023-02-10T12:18:26;8.20;86.70
10192;DHT22;17580;50.850;4.504;2023-02-10T12:21:07;8.20;85.90
10192;DHT22;17580;50.850;4.504;2023-02-10T12:23:54;8.30;85.10
10192;DHT22;17580;50.850;4.504;2023-02-10T12:26:26;8.20;85.30
10192;DHT22;17580;50.850;4.504;2023-02-10T12:29:05;8.10;87.30
10192;DHT22;17580;50.850;4.504;2023-02-10T12:31:41;8.00;85.90
10192;DHT22;17580;50.850;4.504;2023-02-10T12:37:21;7.90;88.50
10192;DHT22;17580;50.850;4.504;2023-02-10T12:43:01;7.80;87.60
10192;DHT22;17580;50.850;4.504;2023-02-10T12:45:38;7.80;88.40
10192;DHT22;17580;50.850;4.504;2023-02-10T12:48:18;7.90;87.90
10192;DHT22;17580;50.850;4.504;2023-02-10T12:51:01;8.00;88.00
10192;DHT22;17580;50.850;4.504;2023-02-10T12:53:34;8.20;87.90
10192;DHT22;17580;50.850;4.504;2023-02-10T12:56:07;8.30;87.00
10192;DHT22;17580;50.850;4.504;2023-02-10T12:58:39;8.30;86.00
10192;DHT22;17580;50.850;4.504;2023-02-10T13:01:13;8.30;86.40
10192;DHT22;17580;50.850;4.504;2023-02-10T13:03:44;8.30;86.10
10192;DHT22;17580;50.850;4.504;2023-02-10T13:06:21;8.30;86.40
10192;DHT22;17580;50.850;4.504;2023-02-10T13:08:55;8.20;85.30
10192;DHT22;17580;50.850;4.504;2023-02-10T13:11:35;8.10;85.80
10192;DHT22;17580;50.850;4.504;2023-02-10T13:14:08;7.90;86.60
10192;DHT22;17580;50.850;4.504;2023-02-10T13:16:39;7.90;86.70
10192;DHT22;17580;50.850;4.504;2023-02-10T13:19:11;7.80;87.70
10192;DHT22;17580;50.850;4.504;2023-02-10T13:21:45;7.70;88.50
10192;DHT22;17580;50.850;4.504;2023-02-10T13:24:18;7.70;90.20
10192;DHT22;17580;50.850;4.504;2023-02-10T13:26:57;7.70;90.20
10192;DHT22;17580;50.850;4.504;2023-02-10T13:29:35;7.80;90.10
10192;DHT22;17580;50.850;4.504;2023-02-10T13:35:13;7.80;90.20
10192;DHT22;17580;50.850;4.504;2023-02-10T13:37:43;7.70;90.30
10192;DHT22;17580;50.850;4.504;2023-02-10T13:40:16;7.70;90.60
10192;DHT22;17580;50.850;4.504;2023-02-10T13:42:49;7.60;90.70
10192;DHT22;17580;50.850;4.504;2023-02-10T13:45:19;7.60;91.00
10192;DHT22;17580;50.850;4.504;2023-02-10T13:47:53;7.60;91.00
10192;DHT22;17580;50.850;4.504;2023-02-10T13:50:28;7.50;90.80
10192;DHT22;17580;50.850;4.504;2023-02-10T13:52:58;7.60;91.00
10192;DHT22;17580;50.850;4.504;2023-02-10T13:55:41;7.40;91.30
10192;DHT22;17580;50.850;4.504;2023-02-10T13:58:31;7.30;92.00
10192;DHT22;17580;50.850;4.504;2023-02-10T14:01:00;7.30;92.70
10192;DHT22;17580;50.850;4.504;2023-02-10T14:03:29;7.30;92.90
10192;DHT22;17580;50.850;4.504;2023-02-10T14:05:58;7.30;92.80
10192;DHT22;17580;50.850;4.504;2023-02-10T14:08:29;7.20;93.00
10192;DHT22;17580;50.850;4.504;2023-02-10T14:10:58;7.20;93.20
10192;DHT22;17580;50.850;4.504;2023-02-10T14:13:27;7.20;93.70
10192;DHT22;17580;50.850;4.504;2023-02-10T14:15:59;7.10;93.30
10192;DHT22;17580;50.850;4.504;2023-02-10T14:18:30;7.10;93.80
10192;DHT22;17580;50.850;4.504;2023-02-10T14:21:00;7.10;94.30
10192;DHT22;17580;50.850;4.504;2023-02-10T14:23:30;7.20;94.50
10192;DHT22;17580;50.850;4.504;2023-02-10T14:25:59;7.20;94.30
10192;DHT22;17580;50.850;4.504;2023-02-10T14:28:29;7.30;93.60
10192;DHT22;17580;50.850;4.504;2023-02-10T14:31:00;7.30;93.30
10192;DHT22;17580;50.850;4.504;2023-02-10T14:33:32;7.40;92.80
10192;DHT22;17580;50.850;4.504;2023-02-10T14:36:02;7.50;92.90
10192;DHT22;17580;50.850;4.504;2023-02-10T14:38:31;7.50;92.20
10192;DHT22;17580;50.850;4.504;2023-02-10T14:41:00;7.40;92.40
10192;DHT22;17580;50.850;4.504;2023-02-10T14:43:30;7.40;92.40
10192;DHT22;17580;50.850;4.504;2023-02-10T14:45:58;7.40;92.80
10192;DHT22;17580;50.850;4.504;2023-02-10T14:48:27;7.50;92.10
10192;DHT22;17580;50.850;4.504;2023-02-10T14:51:02;7.40;92.30
10192;DHT22;17580;50.850;4.504;2023-02-10T14:53:30;7.40;92.40
10192;DHT22;17580;50.850;4.504;2023-02-10T14:55:59;7.40;92.10
10192;DHT22;17580;50.850;4.504;2023-02-10T14:58:27;7.40;92.40
10192;DHT22;17580;50.850;4.504;2023-02-10T15:00:59;7.40;92.60
10192;DHT22;17580;50.850;4.504;2023-02-10T15:03:27;7.60;92.10
10192;DHT22;17580;50.850;4.504;2023-02-10T15:05:55;7.60;91.90
10192;DHT22;17580;50.850;4.504;2023-02-10T15:08:33;7.50;91.60
10192;DHT22;17580;50.850;4.504;2023-02-10T15:11:02;7.50;91.40
10192;DHT22;17580;50.850;4.504;2023-02-10T15:13:34;7.40;91.90
10192;DHT22;17580;50.850;4.504;2023-02-10T15:16:02;7.40;91.70
10192;DHT22;17580;50.850;4.504;2023-02-10T15:18:32;7.50;91.70
10192;DHT22;17580;50.850;4.504;2023-02-10T15:21:02;7.50;92.00
10192;DHT22;17580;50.850;4.504;2023-02-10T15:23:32;7.40;91.60
10192;DHT22;17580;50.850;4.504;2023-02-10T15:26:01;7.30;91.60
10192;DHT22;17580;50.850;4.504;2023-02-10T15:28:31;7.30;91.60
10192;DHT22;17580;50.850;4.504;2023-02-10T15:31:02;7.40;91.80
10192;DHT22;17580;50.850;4.504;2023-02-10T15:33:33;7.40;91.60
10192;DHT22;17580;50.850;4.504;2023-02-10T15:36:20;7.40;91.80
10192;DHT22;17580;50.850;4.504;2023-02-10T15:38:52;7.40;91.60
10192;DHT22;17580;50.850;4.504;2023-02-10T15:41:39;7.40;91.70
10192;DHT22;17580;50.850;4.504;2023-02-10T15:47:41;7.30;92.20
10192;DHT22;17580;50.850;4.504;2023-02-10T15:50:11;7.30;92.50
10192;DHT22;17580;50.850;4.504;2023-02-10T15:52:40;7.30;92.20
10192;DHT22;17580;50.850;4.504;2023-02-10T15:55:18;7.30;92.60
10192;DHT22;17580;50.850;4.504;2023-02-10T15:57:45;7.30;92.20
10192;DHT22;17580;50.850;4.504;2023-02-10T16:00:18;7.20;92.10
10192;DHT22;17580;50.850;4.504;2023-02-10T16:02:46;7.20;92.80
10192;DHT22;17580;50.850;4.504;2023-02-10T16:05:13;7.20;92.90
10192;DHT22;17580;50.850;4.504;2023-02-10T16:07:41;7.10;93.20
10192;DHT22;17580;50.850;4.504;2023-02-10T16:10:15;7.00;93.50
10192;DHT22;17580;50.850;4.504;2023-02-10T16:12:43;7.00;93.70
10192;DHT22;17580;50.850;4.504;2023-02-10T16:15:12;6.90;94.30
10192;DHT22;17580;50.850;4.504;2023-02-10T16:17:42;6.90;94.70
10192;DHT22;17580;50.850;4.504;2023-02-10T16:20:14;6.90;95.30
10192;DHT22;17580;50.850;4.504;2023-02-10T16:22:44;6.80;95.90